Time;durP1;ratioP1;P1;durP2;ratioP2;P2;SDS_P1;SDS_P2;PMS_P1;PMS_P2;Temp;Humidity;BMP_temperature;BMP_pressure;BME280_temperature;BME280_humidity;BME280_pressure;Samples;Min_cycle;Max_cycle;Signal;HPM_P1;HPM_P2
2023/01/31 00:01:13;;;;;;;22.67;3.70;;;2.70;99.90;;;;;;5053359;28;20364;-81
2023/01/31 00:03:39;;;;;;;19.75;3.13;;;2.70;99.90;;;;;;5052830;28;20049;-80
2023/01/31 00:06:35;;;;;;;24.97;3.33;;;2.70;99.90;;;;;;5052438;28;20044;-80
2023/01/31 00:09:04;;;;;;;20.35;4.40;;;2.70;99.90;;;;;;5049867;28;20327;-81
2023/01/31 00:11:30;;;;;;;17.00;3.05;;;2.70;99.90;;;;;;5053261;28;20386;-81
2023/01/31 00:13:57;;;;;;;27.02;4.28;;;2.60;99.90;;;;;;5052619;28;20040;-81
2023/01/31 00:16:23;;;;;;;18.13;2.78;;;2.60;99.90;;;;;;5053516;28;20103;-81
2023/01/31 00:18:49;;;;;;;15.25;3.22;;;2.60;99.90;;;;;;5053436;28;20049;-81
2023/01/31 00:21:18;;;;;;;15.52;2.88;;;3.60;99.90;;;;;;5053443;28;20044;-81
2023/01/31 00:23:45;;;;;;;12.68;2.78;;;2.50;99.90;;;;;;5052075;28;20049;-81
2023/01/31 00:26:19;;;;;;;;;;;2.50;99.90;;;;;;5052851;28;20037;-81
2023/01/31 00:28:46;;;;;;;9.85;2.78;;;2.50;99.90;;;;;;5053333;28;19963;-80
2023/01/31 00:31:13;;;;;;;20.30;3.25;;;2.50;99.90;;;;;;5053351;28;20496;-82
2023/01/31 00:33:41;;;;;;;18.63;3.67;;;2.50;99.90;;;;;;5053177;28;20052;-81
2023/01/31 00:36:09;;;;;;;17.67;3.30;;;2.50;99.90;;;;;;5053477;28;20037;-81
2023/01/31 00:38:35;;;;;;;26.13;4.03;;;2.40;99.90;;;;;;5053213;28;20128;-80
2023/01/31 00:41:03;;;;;;;17.98;3.13;;;2.40;99.90;;;;;;5053307;28;20064;-81
2023/01/31 00:43:29;;;;;;;15.65;3.38;;;2.40;99.90;;;;;;5052039;28;20440;-80
2023/01/31 00:45:55;;;;;;;23.55;3.33;;;2.40;99.90;;;;;;5052629;28;20370;-81
2023/01/31 00:48:21;;;;;;;18.60;3.55;;;2.30;99.90;;;;;;5053081;28;20139;-81
2023/01/31 00:50:46;;;;;;;22.38;3.97;;;2.40;99.90;;;;;;5053172;28;20048;-80
2023/01/31 00:53:12;;;;;;;21.92;3.70;;;2.30;99.90;;;;;;5053075;28;20117;-81
2023/01/31 00:55:38;;;;;;;15.93;3.00;;;2.30;99.90;;;;;;5053335;28;20045;-81
2023/01/31 00:58:04;;;;;;;14.68;2.60;;;2.20;99.90;;;;;;5052172;28;20370;-80
2023/01/31 01:00:30;;;;;;;19.65;2.80;;;2.20;99.90;;;;;;5053106;28;20045;-81
2023/01/31 01:02:55;;;;;;;14.43;2.83;;;2.20;99.90;;;;;;5052941;28;20120;-81
2023/01/31 01:05:21;;;;;;;14.85;2.80;;;2.20;99.90;;;;;;5053066;28;20515;-80
2023/01/31 01:07:47;;;;;;;12.15;2.70;;;2.20;99.90;;;;;;5053042;28;20041;-81
2023/01/31 01:10:12;;;;;;;16.90;2.60;;;2.20;99.90;;;;;;5052942;28;20539;-81
2023/01/31 01:12:38;;;;;;;11.13;2.83;;;2.10;99.90;;;;;;5052114;28;20110;-81
2023/01/31 01:15:04;;;;;;;12.68;2.70;;;2.10;99.90;;;;;;5051819;28;20045;-81
2023/01/31 01:17:30;;;;;;;17.17;2.80;;;2.00;99.90;;;;;;5052832;28;20091;-81
2023/01/31 01:19:56;;;;;;;13.82;3.10;;;2.00;99.90;;;;;;5054089;28;20094;-80
2023/01/31 01:22:21;;;;;;;17.90;3.15;;;1.90;99.90;;;;;;5056385;28;20037;-81
2023/01/31 01:24:47;;;;;;;13.20;2.80;;;1.80;99.90;;;;;;5056367;28;20041;-81
2023/01/31 01:27:13;;;;;;;13.43;2.78;;;1.80;99.90;;;;;;5056402;28;20045;-81
2023/01/31 01:29:39;;;;;;;12.75;3.42;;;1.80;99.90;;;;;;5056460;28;20091;-81
2023/01/31 01:32:05;;;;;;;8.85;3.03;;;1.70;99.90;;;;;;5056346;28;20480;-81
2023/01/31 01:34:32;;;;;;;12.52;2.72;;;1.60;99.90;;;;;;5056204;28;20045;-81
2023/01/31 01:36:58;;;;;;;;;;;1.60;99.90;;;;;;5056645;28;20553;-80
2023/01/31 01:39:24;;;;;;;17.17;2.90;;;1.50;99.90;;;;;;5056649;28;19920;-80
2023/01/31 01:41:51;;;;;;;13.73;2.95;;;1.50;99.90;;;;;;5055940;28;20511;-81
2023/01/31 01:44:41;;;;;;;16.17;3.35;;;1.50;99.90;;;;;;5056287;28;20048;-81
2023/01/31 01:47:28;;;;;;;17.85;3.15;;;1.50;99.90;;;;;;5056116;28;20048;-80
2023/01/31 01:50:03;;;;;;;22.85;3.35;;;1.40;99.90;;;;;;5056723;28;20060;-81
2023/01/31 01:52:33;;;;;;;13.52;2.75;;;1.40;99.90;;;;;;5054928;28;20067;-80
2023/01/31 01:55:33;;;;;;;14.43;2.97;;;1.40;99.90;;;;;;5055780;28;20053;-80
2023/01/31 01:58:06;;;;;;;15.80;3.08;;;1.30;99.90;;;;;;5012940;28;20191;-81
2023/01/31 02:00:33;;;;;;;10.43;2.72;;;1.30;99.90;;;;;;5055403;28;20044;-80
2023/01/31 02:03:03;;;;;;;21.35;3.00;;;1.40;99.90;;;;;;5055211;28;20041;-81
2023/01/31 02:05:33;;;;;;;13.40;2.90;;;1.90;99.90;;;;;;5055671;28;20060;-80
2023/01/31 02:08:01;;;;;;;17.58;3.30;;;1.20;99.90;;;;;;5055432;28;20080;-81
2023/01/31 02:10:31;;;;;;;15.70;2.97;;;1.20;99.90;;;;;;5054346;28;20041;-81
2023/01/31 02:12:57;;;;;;;16.58;2.75;;;1.20;99.90;;;;;;5055531;28;20055;-81
2023/01/31 02:15:23;;;;;;;20.77;3.40;;;1.60;99.90;;;;;;5055361;28;20049;-81
2023/01/31 02:17:49;;;;;;;8.10;2.53;;;1.10;99.90;;;;;;5053985;28;20485;-81
2023/01/31 02:20:36;;;;;;;10.07;2.60;;;1.10;99.90;;;;;;5054323;28;20045;-80
2023/01/31 02:23:35;;;;;;;16.35;3.40;;;1.10;99.90;;;;;;5055240;28;20056;-80
2023/01/31 02:26:34;;;;;;;16.08;3.83;;;1.10;99.90;;;;;;5055308;28;20045;-80
2023/01/31 02:29:49;;;;;;;16.05;3.50;;;1.10;99.90;;;;;;5055243;28;20037;-80
2023/01/31 02:32:41;;;;;;;19.85;3.33;;;1.10;99.90;;;;;;4974153;28;20085;-81
2023/01/31 02:35:36;;;;;;;12.52;2.35;;;1.10;99.90;;;;;;5055094;28;20083;-82
2023/01/31 02:38:40;;;;;;;8.50;2.30;;;1.10;99.90;;;;;;5055454;28;20374;-81
2023/01/31 02:41:14;;;;;;;17.88;2.90;;;1.10;99.90;;;;;;5053771;28;20497;-81
2023/01/31 02:47:25;;;;;;;11.88;3.00;;;1.20;99.90;;;;;;5054073;28;20147;-81
2023/01/31 02:50:09;;;;;;;7.43;2.85;;;1.30;99.90;;;;;;5053287;28;20141;-81
2023/01/31 02:52:56;;;;;;;17.52;3.03;;;1.30;99.90;;;;;;5055191;28;20485;-81
2023/01/31 02:58:15;;;;;;;25.77;4.90;;;1.40;99.90;;;;;;5054741;28;20045;-81
2023/01/31 03:00:44;;;;;;;16.73;3.40;;;1.50;99.90;;;;;;5054543;28;20072;-81
2023/01/31 03:03:30;;;;;;;14.98;3.25;;;1.60;99.90;;;;;;5053282;28;20382;-81
2023/01/31 03:06:22;;;;;;;12.18;2.30;;;1.60;99.90;;;;;;5037096;28;20048;-81
2023/01/31 03:09:09;;;;;;;16.50;2.92;;;1.70;99.90;;;;;;5043256;28;20065;-81
2023/01/31 03:11:38;;;;;;;14.15;2.78;;;1.70;99.90;;;;;;5040291;28;20082;-81
2023/01/31 03:14:13;;;;;;;15.48;3.08;;;1.80;99.90;;;;;;5054584;28;20051;-81
2023/01/31 03:19:55;;;;;;;16.77;3.55;;;1.90;99.90;;;;;;5054263;28;20520;-81
2023/01/31 03:22:28;;;;;;;18.98;2.88;;;2.00;99.90;;;;;;5016166;28;20496;-80
2023/01/31 03:24:54;;;;;;;13.25;3.15;;;2.00;99.90;;;;;;5052744;28;20488;-80
2023/01/31 03:27:20;;;;;;;21.30;3.97;;;2.00;99.90;;;;;;5052812;28;20045;-81
2023/01/31 03:29:47;;;;;;;22.23;3.53;;;2.10;99.90;;;;;;5054386;28;20053;-81
2023/01/31 03:32:28;;;;;;;13.00;3.10;;;2.30;99.90;;;;;;5052873;28;20076;-81
2023/01/31 03:34:54;;;;;;;16.58;3.60;;;2.20;99.90;;;;;;5054017;28;20492;-81
2023/01/31 03:37:51;;;;;;;12.98;3.05;;;2.30;99.90;;;;;;5053255;28;20087;-81
2023/01/31 03:40:24;;;;;;;12.20;2.75;;;2.30;99.90;;;;;;5053996;28;20116;-81
2023/01/31 03:43:11;;;;;;;18.17;3.30;;;2.40;99.90;;;;;;5052609;28;20088;-81
2023/01/31 03:45:53;;;;;;;14.67;2.83;;;2.40;99.90;;;;;;5053992;28;20068;-81
2023/01/31 03:48:21;;;;;;;9.75;2.72;;;2.50;99.90;;;;;;5052913;28;20374;-81
2023/01/31 03:50:58;;;;;;;15.85;3.20;;;2.50;99.90;;;;;;5053763;28;20053;-81
2023/01/31 03:53:45;;;;;;;11.98;2.35;;;2.60;99.90;;;;;;5053051;28;20044;-81
2023/01/31 03:56:37;;;;;;;15.40;3.72;;;2.60;99.90;;;;;;5053725;28;20067;-80
2023/01/31 03:59:08;;;;;;;13.45;3.10;;;2.70;99.90;;;;;;5052857;28;20476;-81
2023/01/31 04:01:39;;;;;;;16.65;3.03;;;2.70;99.90;;;;;;5052534;28;20041;-81
2023/01/31 04:04:15;;;;;;;16.98;2.83;;;2.70;99.90;;;;;;5053229;28;20390;-81
2023/01/31 04:06:41;;;;;;;14.05;3.35;;;2.80;99.90;;;;;;5053831;28;20044;-81
2023/01/31 04:09:06;;;;;;;18.35;2.67;;;2.80;99.90;;;;;;5052288;28;20447;-81
2023/01/31 04:11:38;;;;;;;13.60;3.13;;;2.80;99.90;;;;;;5053496;28;20048;-81
2023/01/31 04:14:04;;;;;;;12.52;2.80;;;2.80;99.90;;;;;;5053731;28;20043;-81
2023/01/31 04:16:29;;;;;;;12.95;2.92;;;2.90;99.90;;;;;;5052599;28;20040;-81
2023/01/31 04:18:55;;;;;;;12.93;2.72;;;3.00;99.90;;;;;;5054494;28;20529;-81
2023/01/31 04:21:21;;;;;;;6.50;2.40;;;3.00;99.90;;;;;;5056025;28;20033;-81
2023/01/31 04:23:47;;;;;;;13.67;3.53;;;3.00;99.90;;;;;;5035723;28;20124;-81
2023/01/31 04:26:13;;;;;;;17.48;2.85;;;3.00;99.90;;;;;;5053551;28;20080;-81
2023/01/31 04:28:38;;;;;;;14.88;2.95;;;3.00;99.90;;;;;;5053267;28;20064;-81
2023/01/31 04:31:04;;;;;;;10.02;2.88;;;3.00;99.90;;;;;;5052288;28;20038;-81
2023/01/31 04:33:30;;;;;;;10.25;2.38;;;3.10;99.90;;;;;;5053220;28;20045;-81
2023/01/31 04:35:55;;;;;;;10.70;2.95;;;3.10;99.90;;;;;;5052268;28;20405;-81
2023/01/31 04:38:21;;;;;;;9.15;3.03;;;3.10;99.90;;;;;;5053294;28;20052;-81
2023/01/31 04:40:46;;;;;;;9.35;2.63;;;3.20;99.90;;;;;;5053299;28;20045;-81
2023/01/31 04:43:12;;;;;;;16.85;3.05;;;3.20;99.90;;;;;;5053240;28;20477;-81
2023/01/31 04:45:38;;;;;;;10.75;3.05;;;3.20;99.90;;;;;;5052474;28;20139;-81
2023/01/31 04:48:04;;;;;;;14.13;2.97;;;3.20;99.90;;;;;;5052058;28;20037;-81
2023/01/31 04:50:29;;;;;;;20.05;4.18;;;3.20;99.90;;;;;;5052015;28;20059;-81
2023/01/31 04:52:55;;;;;;;18.10;3.63;;;3.20;99.90;;;;;;5052043;28;20076;-80
2023/01/31 04:55:20;;;;;;;16.50;3.05;;;3.20;99.90;;;;;;5056631;28;20104;-81
2023/01/31 04:57:46;;;;;;;17.45;3.38;;;3.20;99.90;;;;;;5056882;28;20416;-81
2023/01/31 05:00:12;;;;;;;13.25;2.55;;;3.20;99.90;;;;;;5056864;28;20041;-81
2023/01/31 05:02:38;;;;;;;24.05;3.45;;;3.30;99.90;;;;;;5056772;28;20137;-81
2023/01/31 05:05:05;;;;;;;11.52;3.10;;;3.30;99.90;;;;;;5056817;28;20124;-81
2023/01/31 05:07:30;;;;;;;17.45;3.70;;;3.30;99.90;;;;;;5056515;28;20484;-81
2023/01/31 05:09:56;;;;;;;23.27;3.72;;;3.40;99.90;;;;;;5056904;28;20091;-81
2023/01/31 05:12:22;;;;;;;17.88;3.00;;;3.40;99.90;;;;;;5056580;28;20090;-81
2023/01/31 05:14:47;;;;;;;13.27;3.35;;;3.40;99.90;;;;;;5056607;28;20033;-81
2023/01/31 05:17:13;;;;;;;18.33;3.50;;;3.50;99.90;;;;;;5056614;28;20041;-81
2023/01/31 05:19:38;;;;;;;18.67;3.90;;;3.50;99.90;;;;;;5056539;28;20499;-81
2023/01/31 05:22:04;;;;;;;17.95;4.07;;;3.60;99.90;;;;;;5056486;28;20076;-81
2023/01/31 05:24:31;;;;;;;13.65;3.47;;;3.60;99.90;;;;;;5056463;28;20076;-81
2023/01/31 05:27:00;;;;;;;15.25;3.75;;;3.60;99.90;;;;;;5056307;28;20044;-81
2023/01/31 05:29:30;;;;;;;28.13;4.32;;;3.60;99.90;;;;;;5056764;28;20080;-81
2023/01/31 05:31:58;;;;;;;15.27;4.20;;;3.60;99.90;;;;;;5056385;28;20136;-81
2023/01/31 05:34:25;;;;;;;20.38;3.63;;;3.60;99.90;;;;;;5038830;28;20033;-81
2023/01/31 05:36:51;;;;;;;24.58;3.70;;;4.00;99.90;;;;;;5055150;28;20044;-81
2023/01/31 05:39:17;;;;;;;16.98;4.20;;;3.60;99.90;;;;;;5056130;28;20044;-81
2023/01/31 05:41:43;;;;;;;18.48;3.92;;;3.60;99.90;;;;;;5056602;28;20144;-80
2023/01/31 05:44:09;;;;;;;25.75;4.07;;;4.50;99.90;;;;;;5056666;28;20447;-81
2023/01/31 05:46:35;;;;;;;17.27;4.28;;;3.60;99.90;;;;;;5056104;28;20477;-80
2023/01/31 05:49:01;;;;;;;17.80;3.75;;;3.60;99.90;;;;;;5056275;28;20385;-81
2023/01/31 05:51:27;;;;;;;15.65;4.05;;;3.60;99.90;;;;;;5054909;28;20056;-80
2023/01/31 05:53:53;;;;;;;12.73;3.70;;;3.60;99.90;;;;;;5055827;28;20136;-81
2023/01/31 05:56:19;;;;;;;19.17;3.85;;;3.60;99.90;;;;;;5055810;28;20123;-81
2023/01/31 05:58:49;;;;;;;18.75;4.00;;;3.60;99.90;;;;;;5055745;28;20045;-80
2023/01/31 06:01:22;;;;;;;20.48;4.28;;;3.60;99.90;;;;;;5038450;28;20045;-80
2023/01/31 06:03:48;;;;;;;27.40;4.95;;;3.60;99.90;;;;;;5056022;28;20049;-83
2023/01/31 06:06:14;;;;;;;21.08;5.05;;;3.60;99.90;;;;;;5054068;28;20045;-86
2023/01/31 06:08:43;;;;;;;21.33;5.45;;;3.60;99.90;;;;;;5054436;28;20407;-83
2023/01/31 06:11:10;;;;;;;18.63;4.88;;;3.70;99.90;;;;;;5054287;28;20135;-82
2023/01/31 06:13:42;;;;;;;22.15;4.55;;;3.70;99.90;;;;;;5054704;28;20503;-82
2023/01/31 06:16:08;;;;;;;29.45;5.53;;;3.70;99.90;;;;;;5055522;28;20409;-82
2023/01/31 06:18:34;;;;;;;15.87;4.70;;;3.80;99.90;;;;;;5054517;28;20098;-82
2023/01/31 06:21:00;;;;;;;24.50;5.68;;;3.80;99.90;;;;;;5055409;28;20283;-83
2023/01/31 06:23:25;;;;;;;14.50;4.97;;;3.90;99.90;;;;;;5055323;28;20080;-81
2023/01/31 06:25:52;;;;;;;30.92;6.75;;;3.90;99.90;;;;;;5055402;28;20428;-83
2023/01/31 06:28:18;;;;;;;21.73;6.18;;;4.70;99.90;;;;;;5055294;28;20053;-85
2023/01/31 06:30:44;;;;;;;19.08;5.28;;;4.00;99.90;;;;;;5054458;28;20041;-83
2023/01/31 06:33:11;;;;;;;22.38;6.18;;;4.10;99.90;;;;;;5054602;28;20041;-84
2023/01/31 06:35:37;;;;;;;;;;;4.10;99.90;;;;;;5037630;28;20072;-83
2023/01/31 06:38:03;;;;;;;24.27;6.88;;;4.20;99.90;;;;;;5055019;28;19971;-84
2023/01/31 06:40:29;;;;;;;23.52;6.10;;;4.20;99.90;;;;;;5053847;28;20052;-85
2023/01/31 06:42:55;;;;;;;30.63;6.10;;;4.30;99.90;;;;;;5055675;28;20052;-82
2023/01/31 06:45:21;;;;;;;18.30;6.50;;;4.30;99.90;;;;;;5054950;28;20283;-82
2023/01/31 06:47:47;;;;;;;32.20;9.25;;;4.30;99.90;;;;;;5053884;28;20366;-81
2023/01/31 06:50:13;;;;;;;37.07;7.10;;;4.40;99.90;;;;;;5054830;28;20063;-81
2023/01/31 06:52:39;;;;;;;37.00;9.38;;;4.40;99.90;;;;;;5053570;28;20283;-81
2023/01/31 06:55:06;;;;;;;26.60;8.17;;;4.50;99.90;;;;;;5054643;28;20036;-80
2023/01/31 06:57:31;;;;;;;31.23;8.57;;;4.50;99.90;;;;;;5053709;28;20049;-81
2023/01/31 06:59:57;;;;;;;29.25;8.13;;;4.50;99.90;;;;;;5054652;28;20047;-80
2023/01/31 07:02:22;;;;;;;25.13;7.75;;;4.60;99.90;;;;;;5054597;28;20048;-80
2023/01/31 07:04:48;;;;;;;32.00;8.13;;;4.60;99.90;;;;;;5054715;28;20048;-80
2023/01/31 07:07:13;;;;;;;32.05;7.72;;;4.70;99.90;;;;;;5054504;28;20063;-80
2023/01/31 07:09:39;;;;;;;31.83;7.00;;;4.70;99.90;;;;;;5054459;28;20040;-81
2023/01/31 07:12:05;;;;;;;33.70;8.10;;;4.80;99.90;;;;;;5054767;28;20044;-79
2023/01/31 07:14:30;;;;;;;30.02;8.20;;;4.80;99.90;;;;;;5053255;28;20041;-84
2023/01/31 07:16:56;;;;;;;33.70;9.40;;;4.80;99.90;;;;;;5053522;28;20041;-84
2023/01/31 07:19:21;;;;;;;24.17;7.57;;;4.90;99.90;;;;;;5054416;28;20040;-82
2023/01/31 07:21:48;;;;;;;33.13;7.38;;;4.90;99.90;;;;;;5054300;28;20397;-81
2023/01/31 07:24:14;;;;;;;26.50;7.37;;;5.00;99.90;;;;;;5054283;28;20182;-81
2023/01/31 07:26:40;;;;;;;21.88;5.75;;;5.00;99.90;;;;;;5053127;28;20279;-81
2023/01/31 07:29:06;;;;;;;20.58;5.72;;;5.00;99.90;;;;;;5054329;28;20082;-80
2023/01/31 07:31:32;;;;;;;32.35;6.38;;;5.10;99.90;;;;;;5052813;28;20132;-81
2023/01/31 07:33:58;;;;;;;17.63;5.43;;;5.10;99.90;;;;;;5053951;28;20060;-81
2023/01/31 07:36:25;;;;;;;29.48;6.10;;;5.10;99.90;;;;;;5054044;28;20053;-80
2023/01/31 07:38:55;;;;;;;;;;;5.10;99.90;;;;;;5053124;28;20053;-80
2023/01/31 07:41:21;;;;;;;20.17;5.85;;;5.20;99.90;;;;;;5052643;28;19921;-79
2023/01/31 07:43:46;;;;;;;23.23;5.50;;;5.20;99.90;;;;;;5053865;28;20179;-80
2023/01/31 07:46:12;;;;;;;20.45;5.13;;;5.60;99.90;;;;;;5053848;28;20045;-80
2023/01/31 07:48:38;;;;;;;22.42;5.45;;;5.30;99.90;;;;;;5052577;28;20103;-79
2023/01/31 07:51:04;;;;;;;15.05;5.20;;;5.30;99.90;;;;;;5054136;28;20127;-78
2023/01/31 07:53:33;;;;;;;18.80;5.15;;;5.30;99.90;;;;;;5053650;28;20049;-77
2023/01/31 07:56:09;;;;;;;17.83;5.47;;;5.30;99.90;;;;;;5053663;28;20049;-78
2023/01/31 07:58:36;;;;;;;22.80;4.90;;;5.40;99.90;;;;;;5054018;28;20055;-78
2023/01/31 08:03:46;;;;;;;20.30;5.05;;;5.40;99.90;;;;;;5053630;28;20045;-78
2023/01/31 08:06:12;;;;;;;23.92;5.85;;;5.40;99.90;;;;;;5053592;28;20049;-78
2023/01/31 08:08:39;;;;;;;25.38;4.70;;;5.40;99.90;;;;;;5053963;28;20390;-78
2023/01/31 08:11:05;;;;;;;21.02;4.68;;;5.40;99.90;;;;;;5053717;28;20052;-78
2023/01/31 08:13:32;;;;;;;15.48;4.43;;;5.80;99.90;;;;;;5053773;28;20432;-78
2023/01/31 08:15:58;;;;;;;12.40;4.63;;;5.40;99.90;;;;;;5053420;28;20048;-80
2023/01/31 08:18:24;;;;;;;21.85;6.00;;;5.50;99.90;;;;;;5052547;28;20041;-85
2023/01/31 08:20:50;;;;;;;22.13;5.13;;;5.50;99.90;;;;;;5053501;28;20041;-82
2023/01/31 08:23:16;;;;;;;13.52;4.45;;;5.50;99.90;;;;;;5052786;28;20099;-80
2023/01/31 08:25:42;;;;;;;18.63;5.47;;;5.50;99.90;;;;;;5052605;28;20053;-79
2023/01/31 08:28:08;;;;;;;16.48;4.78;;;5.50;99.90;;;;;;5052065;28;20056;-78
2023/01/31 08:30:38;;;;;;;18.77;5.13;;;5.60;99.90;;;;;;5057626;28;20041;-86
2023/01/31 08:33:03;;;;;;;27.83;5.45;;;5.60;99.90;;;;;;5056525;28;20468;-77
2023/01/31 08:35:29;;;;;;;17.98;4.72;;;5.60;99.90;;;;;;5057276;28;20087;-77
2023/01/31 08:37:54;;;;;;;20.33;6.18;;;5.60;99.90;;;;;;5057270;28;20057;-78
2023/01/31 08:40:20;;;;;;;12.55;4.32;;;5.60;99.90;;;;;;5056187;28;20045;-82
2023/01/31 08:42:54;;;;;;;17.02;4.35;;;5.60;99.90;;;;;;5056184;28;20041;-77
2023/01/31 08:45:20;;;;;;;22.83;5.13;;;6.30;99.90;;;;;;5057283;28;20049;-77
2023/01/31 08:47:45;;;;;;;17.08;5.35;;;5.60;99.90;;;;;;5057161;28;20048;-79
2023/01/31 08:50:11;;;;;;;20.48;4.95;;;5.70;99.90;;;;;;5055945;28;20413;-78
2023/01/31 08:52:37;;;;;;;18.08;5.55;;;5.70;99.90;;;;;;5057088;28;20499;-78
2023/01/31 08:55:05;;;;;;;16.27;4.63;;;5.70;99.90;;;;;;5056835;28;20049;-77
2023/01/31 08:57:30;;;;;;;19.42;4.80;;;5.70;99.90;;;;;;5057217;28;20037;-77
2023/01/31 08:59:56;;;;;;;16.42;4.32;;;5.70;99.90;;;;;;5056920;28;20049;-77
2023/01/31 09:02:22;;;;;;;22.52;4.45;;;5.60;99.90;;;;;;5056862;28;20077;-77
2023/01/31 09:04:48;;;;;;;16.83;4.88;;;5.70;99.90;;;;;;5056875;28;20037;-80
2023/01/31 09:07:14;;;;;;;18.23;4.32;;;5.70;99.90;;;;;;5055622;28;20045;-83
2023/01/31 09:09:39;;;;;;;19.52;4.93;;;5.70;99.90;;;;;;5038297;28;20051;-83
2023/01/31 09:12:05;;;;;;;22.60;5.72;;;5.70;99.90;;;;;;5038610;28;20052;-83
2023/01/31 09:14:31;;;;;;;15.80;4.65;;;5.70;99.90;;;;;;5055877;28;20033;-80
2023/01/31 09:16:56;;;;;;;15.80;4.22;;;5.40;99.90;;;;;;5056555;28;20040;-80
2023/01/31 09:19:22;;;;;;;14.60;5.43;;;6.50;99.90;;;;;;5055305;28;20133;-79
2023/01/31 09:21:48;;;;;;;18.15;5.18;;;5.70;99.90;;;;;;5056610;28;20041;-86
2023/01/31 09:24:14;;;;;;;17.48;4.63;;;5.70;99.90;;;;;;5055546;28;20075;-82
2023/01/31 09:26:39;;;;;;;14.57;4.80;;;5.80;99.90;;;;;;5055337;28;20048;-80
2023/01/31 09:29:05;;;;;;;18.77;4.70;;;5.70;99.90;;;;;;5056188;28;20076;-82
2023/01/31 09:31:30;;;;;;;14.80;4.97;;;5.80;99.90;;;;;;5056129;28;20049;-80
2023/01/31 09:33:56;;;;;;;17.63;4.45;;;6.40;99.90;;;;;;5055892;28;20084;-79
2023/01/31 09:36:23;;;;;;;12.07;4.22;;;5.80;99.90;;;;;;5056703;28;20041;-79
2023/01/31 09:38:54;;;;;;;15.02;4.35;;;5.80;99.90;;;;;;5056249;28;20443;-79
2023/01/31 09:41:53;;;;;;;13.38;4.32;;;5.90;99.90;;;;;;5055096;28;20469;-79
2023/01/31 09:44:40;;;;;;;13.40;4.10;;;5.90;99.90;;;;;;5056149;28;20041;-78
2023/01/31 09:47:19;;;;;;;21.07;5.00;;;5.90;99.90;;;;;;5054929;28;20059;-79
2023/01/31 09:49:53;;;;;;;11.30;4.00;;;6.00;99.90;;;;;;5056107;28;20064;-79
2023/01/31 09:52:21;;;;;;;14.27;4.43;;;6.00;99.90;;;;;;5055794;28;20538;-79
2023/01/31 09:54:47;;;;;;;22.55;4.97;;;6.10;99.90;;;;;;5055599;28;20055;-79
2023/01/31 09:57:31;;;;;;;17.92;4.15;;;6.10;99.90;;;;;;5055654;28;20037;-79
2023/01/31 09:59:56;;;;;;;16.70;4.88;;;6.10;99.90;;;;;;5054386;28;20048;-78
2023/01/31 10:02:27;;;;;;;16.10;3.72;;;6.20;99.90;;;;;;5055679;28;20040;-80
2023/01/31 10:05:18;;;;;;;15.13;3.67;;;6.30;99.90;;;;;;5055718;28;20128;-79
2023/01/31 10:07:57;;;;;;;14.13;4.13;;;6.30;99.90;;;;;;5056124;28;20053;-79
2023/01/31 10:10:34;;;;;;;15.50;3.78;;;6.30;99.90;;;;;;5055383;28;20481;-79
2023/01/31 10:13:05;;;;;;;14.82;3.85;;;6.30;99.90;;;;;;5055592;28;20047;-79
2023/01/31 10:15:52;;;;;;;13.98;3.78;;;6.30;99.90;;;;;;5055396;28;20041;-80
2023/01/31 10:18:29;;;;;;;16.33;3.70;;;6.40;99.90;;;;;;5055435;28;20052;-79
2023/01/31 10:21:07;;;;;;;14.30;3.88;;;6.40;99.90;;;;;;5055715;28;20095;-79
2023/01/31 10:23:43;;;;;;;15.43;4.80;;;6.40;99.90;;;;;;5055376;28;20044;-79
2023/01/31 10:26:13;;;;;;;15.18;3.95;;;6.40;99.90;;;;;;5055320;28;20133;-80
2023/01/31 10:28:52;;;;;;;13.15;3.88;;;6.40;99.90;;;;;;5055144;28;20576;-79
2023/01/31 10:31:32;;;;;;;13.93;4.97;;;6.60;99.90;;;;;;5055255;28;20520;-79
2023/01/31 10:34:20;;;;;;;34.35;8.27;;;6.50;99.90;;;;;;5055248;28;20136;-79
2023/01/31 10:37:00;;;;;;;16.05;4.55;;;6.80;99.90;;;;;;5056196;28;20123;-79
2023/01/31 10:39:38;;;;;;;16.23;3.75;;;6.50;99.90;;;;;;5055300;28;20053;-79
2023/01/31 10:42:22;;;;;;;19.52;4.45;;;6.50;99.90;;;;;;5055293;28;20080;-79
2023/01/31 10:45:12;;;;;;;12.88;3.72;;;6.50;99.90;;;;;;5054830;28;20216;-78
2023/01/31 10:47:50;;;;;;;15.32;4.00;;;6.50;99.90;;;;;;5055023;28;20048;-79
2023/01/31 10:50:26;;;;;;;16.75;3.70;;;6.50;99.90;;;;;;5055430;28;20056;-79
2023/01/31 10:53:45;;;;;;;11.93;4.15;;;6.50;99.90;;;;;;5054614;28;20559;-79
2023/01/31 10:56:31;;;;;;;16.27;4.85;;;6.50;99.90;;;;;;4973712;28;20047;-79
2023/01/31 10:59:01;;;;;;;16.50;3.40;;;6.50;99.90;;;;;;4974179;28;20086;-79
2023/01/31 11:01:27;;;;;;;16.98;3.13;;;7.00;99.90;;;;;;5024360;28;20135;-79
2023/01/31 11:03:55;;;;;;;9.83;3.30;;;6.50;99.90;;;;;;5055128;28;20444;-79
2023/01/31 11:06:21;;;;;;;17.00;4.40;;;6.50;99.90;;;;;;5054544;28;20091;-79
2023/01/31 11:08:49;;;;;;;14.77;4.00;;;6.50;99.90;;;;;;5054505;28;20489;-79
2023/01/31 11:11:17;;;;;;;14.98;3.80;;;6.90;99.90;;;;;;5054493;28;20555;-79
2023/01/31 11:13:55;;;;;;;14.55;4.28;;;6.90;99.90;;;;;;5054562;28;20041;-79
2023/01/31 11:16:21;;;;;;;;;;;6.50;99.90;;;;;;5054709;28;20071;-79
2023/01/31 11:18:49;;;;;;;14.18;3.85;;;6.50;99.90;;;;;;5054593;28;19921;-79
2023/01/31 11:21:21;;;;;;;16.13;3.67;;;6.50;99.90;;;;;;5054245;28;20053;-79
2023/01/31 11:23:47;;;;;;;16.58;4.28;;;6.50;99.90;;;;;;5054477;28;20044;-79
2023/01/31 11:26:34;;;;;;;16.05;3.45;;;6.50;99.90;;;;;;5054175;28;20090;-79
2023/01/31 11:29:01;;;;;;;10.32;3.65;;;6.50;99.90;;;;;;5054680;28;20057;-80
2023/01/31 11:31:34;;;;;;;14.43;4.07;;;6.50;99.90;;;;;;5054136;28;20119;-79
2023/01/31 11:34:03;;;;;;;20.48;4.13;;;6.50;99.90;;;;;;5054006;28;20484;-79
2023/01/31 11:36:41;;;;;;;10.50;3.40;;;6.40;99.90;;;;;;5054228;28;20406;-79
2023/01/31 11:39:30;;;;;;;10.98;3.47;;;6.40;99.90;;;;;;5053962;28;20105;-80
2023/01/31 11:42:03;;;;;;;18.13;4.03;;;6.40;99.90;;;;;;5054010;28;20095;-79
2023/01/31 11:44:29;;;;;;;11.93;4.20;;;6.40;99.90;;;;;;5053374;28;20527;-83
2023/01/31 11:46:58;;;;;;;14.32;4.43;;;7.10;99.90;;;;;;5053901;28;20080;-81
2023/01/31 11:49:40;;;;;;;16.88;4.53;;;6.50;99.90;;;;;;5052948;28;20045;-81
2023/01/31 11:52:20;;;;;;;22.95;5.28;;;6.50;99.90;;;;;;5056285;28;20045;-78
2023/01/31 11:54:50;;;;;;;12.48;4.15;;;6.50;99.90;;;;;;5052628;28;20125;-79
2023/01/31 11:57:29;;;;;;;18.23;6.63;;;6.50;99.90;;;;;;5053640;28;20037;-79
2023/01/31 11:59:57;;;;;;;17.67;4.47;;;6.70;99.90;;;;;;5053652;28;20041;-77
2023/01/31 12:02:38;;;;;;;19.83;4.82;;;6.50;99.90;;;;;;5053405;28;20512;-77
2023/01/31 12:05:13;;;;;;;16.40;4.47;;;6.60;99.90;;;;;;5053538;28;20114;-78
2023/01/31 12:07:46;;;;;;;14.77;4.10;;;6.60;99.90;;;;;;5053722;28;20068;-77
2023/01/31 12:10:34;;;;;;;17.75;4.30;;;6.60;99.90;;;;;;5053364;28;20552;-79
2023/01/31 12:13:03;;;;;;;16.17;4.20;;;7.60;99.90;;;;;;5054008;28;20048;-76
2023/01/31 12:15:30;;;;;;;18.67;4.40;;;6.60;99.90;;;;;;5053517;28;20674;-79
2023/01/31 12:17:59;;;;;;;14.32;4.00;;;6.60;99.90;;;;;;5052742;28;20052;-81
2023/01/31 12:20:35;;;;;;;22.98;4.47;;;6.70;99.90;;;;;;5053471;28;20041;-79
2023/01/31 12:23:17;;;;;;;21.15;4.50;;;6.70;99.90;;;;;;5052437;28;20155;-81
2023/01/31 12:25:47;;;;;;;20.25;4.03;;;6.70;99.90;;;;;;5053545;28;20049;-82
2023/01/31 12:28:46;;;;;;;16.77;4.32;;;6.70;99.90;;;;;;5053499;28;20122;-81
2023/01/31 12:31:18;;;;;;;15.57;4.57;;;6.80;99.90;;;;;;5053438;28;20045;-84
2023/01/31 12:34:05;;;;;;;27.23;4.15;;;6.90;99.90;;;;;;5052161;28;20081;-80
2023/01/31 12:36:31;;;;;;;12.18;3.85;;;6.90;99.90;;;;;;5053638;28;20056;-80
2023/01/31 12:39:14;;;;;;;22.70;6.13;;;6.90;99.90;;;;;;5053472;28;20397;-79
2023/01/31 12:41:54;;;;;;;13.43;4.03;;;7.00;99.90;;;;;;5064440;28;20055;-76
2023/01/31 12:44:35;;;;;;;14.48;3.75;;;7.00;99.90;;;;;;5073326;28;20049;-76
2023/01/31 12:47:19;;;;;;;11.68;4.18;;;7.10;99.90;;;;;;5073292;28;20141;-76
2023/01/31 12:50:10;;;;;;;15.65;3.83;;;7.10;99.90;;;;;;5073253;28;20139;-77
2023/01/31 12:53:12;;;;;;;21.15;4.97;;;7.20;99.90;;;;;;5073722;28;20091;-77
2023/01/31 12:55:56;;;;;;;18.88;3.90;;;7.30;99.90;;;;;;5073317;28;20447;-76
2023/01/31 12:58:34;;;;;;;12.38;3.38;;;7.40;99.90;;;;;;5073005;28;20123;-76
2023/01/31 13:01:15;;;;;;;17.65;5.28;;;7.30;99.90;;;;;;5073174;28;20094;-76
2023/01/31 13:04:15;;;;;;;11.90;3.60;;;7.40;99.90;;;;;;5073100;28;20507;-77
2023/01/31 13:07:25;;;;;;;18.08;4.03;;;7.40;99.90;;;;;;5073188;28;20472;-79
2023/01/31 13:09:53;;;;;;;14.18;4.32;;;7.30;99.90;;;;;;5073020;28;20045;-81
2023/01/31 13:12:24;;;;;;;15.75;4.00;;;7.50;99.90;;;;;;5073068;28;20509;-81
2023/01/31 13:15:04;;;;;;;21.50;5.10;;;7.40;99.90;;;;;;5074078;28;20047;-82
2023/01/31 13:17:32;;;;;;;20.80;5.55;;;7.80;99.90;;;;;;5076529;28;20113;-84
2023/01/31 13:20:04;;;;;;;11.90;3.55;;;7.50;99.90;;;;;;5075769;28;20037;-83
2023/01/31 13:22:43;;;;;;;13.98;3.70;;;7.50;99.90;;;;;;5076561;28;20083;-80